Altair — 9LC2000 — position and weather

sailwx.info

Track history (hours):
 
Tides and Currents Weather Stations Pressure Air Temp Water Temp Dewpoint Dewpoint Depression Visibility Wind Speed Wind Dir Waves Ship Positions

Altair

Last reported at 2014-Oct-09 07:23 UTC. Time now 2014-Oct-20 04:34 UTC.
Position N 43°38' E 034°42'.
Warning: this ship's position is 10 days out of date.

Length 108 m; draft 3.8 m.

Type: Cargo ship. MMSI: 667021000.

Date/timePositionNaut miles runAvg speedWind from/ knotsBaromVisibWave heightAir tempDewpointWater temp
2014-Oct-09 07:23N 43°38' E 034°42'6 6.4
2014-Oct-09 06:29N 43°34' E 034°36'7 6.6
2014-Oct-09 05:24N 43°29' E 034°30'253 6.2
2014-Oct-07 12:33N 41°21' E 029°33'10 7.2
2014-Oct-07 11:13N 41°18' E 029°21'  
2014-Oct-02 10:31N 38°04' E 026°18'28 7.1
2014-Oct-02 06:33N 37°39' E 026°35'8 7.0
2014-Oct-02 05:26N 37°33' E 026°41'14 7.3
2014-Oct-02 03:29N 37°22' E 026°52'  
Track history (hours):
 
Tides and Currents Weather Stations Pressure Air Temp Water Temp Dewpoint Dewpoint Depression Visibility Wind Speed Wind Dir Waves Ship Positions

Altair

Last reported at 2014-Oct-09 07:23 UTC. Time now 2014-Oct-20 04:34 UTC.
Position N 43°38' E 034°42'.
Warning: this ship's position is 10 days out of date.

Length 108 m; draft 3.8 m.

Type: Cargo ship. MMSI: 667021000.

Date/timePositionNaut miles runAvg speedWind from/ knotsBaromVisibWave heightAir tempDewpointWater temp
2014-Oct-09 07:23N 43°38' E 034°42'6 6.4
2014-Oct-09 06:29N 43°34' E 034°36'7 6.6
2014-Oct-09 05:24N 43°29' E 034°30'253 6.2
2014-Oct-07 12:33N 41°21' E 029°33'10 7.2
2014-Oct-07 11:13N 41°18' E 029°21'  
2014-Oct-02 10:31N 38°04' E 026°18'28 7.1
2014-Oct-02 06:33N 37°39' E 026°35'8 7.0
2014-Oct-02 05:26N 37°33' E 026°41'14 7.3
2014-Oct-02 03:29N 37°22' E 026°52'  

Dump ship's entire track history